Time;durP1;ratioP1;P1;durP2;ratioP2;P2;SDS_P1;SDS_P2;PMS_P1;PMS_P2;Temp;Humidity;BMP_temperature;BMP_pressure;BME280_temperature;BME280_humidity;BME280_pressure;Samples;Min_cycle;Max_cycle;Signal;HPM_P1;HPM_P2
2024/03/31 00:00:50;;;;;;;232.50;64.33;;;;;;;;;;4975920;28;20181;-47
2024/03/31 00:03:16;;;;;;;230.77;64.33;;;;;;;;;;4975402;28;20840;-47
2024/03/31 00:05:42;;;;;;;234.50;69.60;;;;;;;;;;4987439;28;20421;-48
2024/03/31 00:08:08;;;;;;;231.20;65.90;;;;;;;;;;4975817;28;20421;-48
2024/03/31 00:10:34;;;;;;;230.50;63.87;;;;;;;;;;4973371;28;20965;-45
2024/03/31 00:13:00;;;;;;;235.07;68.23;;;;;;;;;;4975838;28;20500;-45
2024/03/31 00:15:26;;;;;;;232.23;65.07;;;;;;;;;;4974975;28;20464;-45
2024/03/31 00:17:51;;;;;;;232.07;66.80;;;;;;;;;;4975625;28;20413;-45
2024/03/31 00:20:17;;;;;;;229.87;64.43;;;;;;;;;;4975919;28;20421;-45
2024/03/31 00:22:46;;;;;;;235.68;71.60;;;;;;;;;;4975902;28;20417;-47
2024/03/31 00:25:12;;;;;;;234.40;68.10;;;;;;;;;;4974703;28;20197;-47
2024/03/31 00:27:38;;;;;;;231.75;66.28;;;;;;;;;;4975489;28;20664;-47
2024/03/31 00:30:05;;;;;;;233.87;69.50;;;;;;;;;;4974950;28;20185;-47
2024/03/31 00:32:31;;;;;;;228.52;62.90;;;;;;;;;;4975039;28;20413;-44
2024/03/31 00:34:57;;;;;;;230.90;66.20;;;;;;;;;;4975118;28;20221;-46
2024/03/31 00:37:23;;;;;;;230.03;64.27;;;;;;;;;;4974850;28;20420;-47
2024/03/31 00:39:49;;;;;;;231.20;67.00;;;;;;;;;;4975254;28;20968;-45
2024/03/31 00:42:15;;;;;;;234.95;70.82;;;;;;;;;;4974878;28;20499;-48
2024/03/31 00:44:41;;;;;;;228.17;61.70;;;;;;;;;;4975378;28;20246;-44
2024/03/31 00:47:08;;;;;;;229.23;64.60;;;;;;;;;;4974633;28;20779;-45
2024/03/31 00:49:34;;;;;;;230.07;64.00;;;;;;;;;;4974609;28;20532;-45
2024/03/31 00:52:00;;;;;;;231.83;67.60;;;;;;;;;;4975460;28;20193;-45
2024/03/31 00:54:26;;;;;;;230.18;64.80;;;;;;;;;;4974393;28;20462;-45
2024/03/31 00:56:52;;;;;;;232.67;67.83;;;;;;;;;;4974772;28;20254;-44
2024/03/31 00:59:18;;;;;;;229.50;63.80;;;;;;;;;;4974711;28;20408;-45
2024/03/31 01:01:44;;;;;;;228.10;62.80;;;;;;;;;;4974906;28;20416;-46
2024/03/31 01:04:10;;;;;;;228.95;63.65;;;;;;;;;;4974423;28;20788;-46
2024/03/31 01:06:36;;;;;;;230.40;66.27;;;;;;;;;;4974377;28;20185;-45
2024/03/31 01:09:02;;;;;;;232.57;70.07;;;;;;;;;;4974255;28;20935;-45
2024/03/31 01:11:28;;;;;;;227.90;62.75;;;;;;;;;;4974300;28;20913;-45
2024/03/31 01:13:56;;;;;;;233.02;68.45;;;;;;;;;;4974703;28;20208;-45
2024/03/31 01:16:22;;;;;;;231.63;68.13;;;;;;;;;;4974154;28;20217;-46
2024/03/31 01:18:48;;;;;;;232.23;67.47;;;;;;;;;;4974024;28;20181;-46
2024/03/31 01:21:14;;;;;;;232.17;67.23;;;;;;;;;;4974087;28;20416;-48
2024/03/31 01:23:45;;;;;;;230.10;64.82;;;;;;;;;;4974394;28;20813;-46
2024/03/31 01:26:13;;;;;;;231.63;65.70;;;;;;;;;;4973853;28;20188;-46
2024/03/31 01:28:39;;;;;;;234.05;70.85;;;;;;;;;;4974317;28;20197;-46
2024/03/31 01:31:04;;;;;;;230.63;64.60;;;;;;;;;;4974128;28;20535;-48
2024/03/31 01:33:30;;;;;;;229.87;66.27;;;;;;;;;;4974048;28;20436;-47
2024/03/31 01:36:00;;;;;;;227.33;62.83;;;;;;;;;;4973922;28;20468;-47
2024/03/31 01:38:26;;;;;;;227.73;63.20;;;;;;;;;;4973877;28;20439;-46
2024/03/31 01:40:52;;;;;;;228.97;63.57;;;;;;;;;;4974801;28;20637;-46
2024/03/31 01:43:18;;;;;;;232.67;70.10;;;;;;;;;;4973289;28;20496;-46
2024/03/31 01:45:44;;;;;;;229.20;64.80;;;;;;;;;;4973853;28;20959;-48
2024/03/31 01:48:10;;;;;;;230.13;66.40;;;;;;;;;;4973582;28;20416;-45
2024/03/31 01:50:36;;;;;;;228.53;64.17;;;;;;;;;;4973956;28;20460;-45
2024/03/31 01:53:02;;;;;;;230.30;66.47;;;;;;;;;;4973615;28;20576;-46
2024/03/31 01:55:28;;;;;;;233.77;70.97;;;;;;;;;;4973456;28;20465;-47
2024/03/31 01:57:54;;;;;;;231.07;66.63;;;;;;;;;;4974000;28;20404;-46
2024/03/31 02:00:20;;;;;;;230.23;67.03;;;;;;;;;;4973940;28;20178;-48
2024/03/31 02:02:46;;;;;;;229.30;65.10;;;;;;;;;;4974115;28;20409;-45
2024/03/31 02:05:12;;;;;;;236.77;71.13;;;;;;;;;;4973191;28;20576;-48
2024/03/31 02:07:38;;;;;;;228.50;67.80;;;;;;;;;;4974351;28;20181;-45
2024/03/31 02:10:04;;;;;;;227.70;63.27;;;;;;;;;;4977565;28;20502;-47
2024/03/31 02:12:30;;;;;;;228.98;66.63;;;;;;;;;;4992198;28;20416;-45
2024/03/31 02:14:56;;;;;;;230.87;67.00;;;;;;;;;;4991754;28;20700;-45
2024/03/31 02:17:22;;;;;;;230.03;67.70;;;;;;;;;;4991405;28;20502;-46
2024/03/31 02:19:48;;;;;;;228.45;64.78;;;;;;;;;;4991715;28;20412;-46
2024/03/31 02:22:18;;;;;;;228.33;64.90;;;;;;;;;;4991993;28;20179;-47
2024/03/31 02:24:44;;;;;;;229.60;64.30;;;;;;;;;;4991702;28;20546;-44
2024/03/31 02:27:11;;;;;;;229.80;65.68;;;;;;;;;;4991547;28;20295;-45
2024/03/31 02:29:38;;;;;;;226.65;62.83;;;;;;;;;;4991996;28;20218;-45
2024/03/31 02:32:04;;;;;;;227.77;65.25;;;;;;;;;;4977983;28;20185;-45
2024/03/31 02:34:30;;;;;;;229.05;65.75;;;;;;;;;;4991493;28;20209;-46
2024/03/31 02:36:55;;;;;;;226.67;63.87;;;;;;;;;;4995051;28;20177;-46
2024/03/31 02:39:21;;;;;;;227.97;64.23;;;;;;;;;;4995393;28;20426;-46
2024/03/31 02:41:47;;;;;;;229.37;65.53;;;;;;;;;;4995283;28;20416;-46
2024/03/31 02:44:13;;;;;;;225.77;62.40;;;;;;;;;;4995252;28;20486;-46
2024/03/31 02:46:39;;;;;;;228.63;66.47;;;;;;;;;;4995102;28;20900;-45
2024/03/31 02:49:06;;;;;;;227.37;62.70;;;;;;;;;;4995288;28;20184;-46
2024/03/31 02:51:32;;;;;;;226.15;62.30;;;;;;;;;;4992707;28;20408;-46
2024/03/31 02:53:57;;;;;;;227.67;63.10;;;;;;;;;;4995203;28;20204;-46
2024/03/31 02:56:23;;;;;;;225.90;61.70;;;;;;;;;;4995247;28;20562;-46
2024/03/31 02:58:49;;;;;;;228.13;64.77;;;;;;;;;;4995011;28;20420;-46
2024/03/31 03:01:15;;;;;;;227.50;64.33;;;;;;;;;;4995030;28;20408;-45
2024/03/31 03:03:43;;;;;;;229.20;65.83;;;;;;;;;;4994767;28;20797;-45
2024/03/31 03:06:09;;;;;;;228.52;63.97;;;;;;;;;;4994840;28;20454;-46
2024/03/31 03:08:35;;;;;;;229.47;65.53;;;;;;;;;;4994949;28;20184;-48
2024/03/31 03:11:03;;;;;;;224.73;61.87;;;;;;;;;;4995145;28;20439;-46
2024/03/31 03:13:29;;;;;;;230.88;68.07;;;;;;;;;;4994700;28;20885;-45
2024/03/31 03:15:55;;;;;;;230.00;65.37;;;;;;;;;;4994530;28;20225;-46
2024/03/31 03:18:21;;;;;;;226.60;63.17;;;;;;;;;;4994860;28;20404;-46
2024/03/31 03:20:47;;;;;;;225.70;61.80;;;;;;;;;;4994972;28;20510;-46
2024/03/31 03:23:13;;;;;;;227.27;64.60;;;;;;;;;;4994620;28;20732;-46
2024/03/31 03:25:39;;;;;;;231.27;67.37;;;;;;;;;;4994483;28;20940;-47
2024/03/31 03:28:06;;;;;;;227.70;62.88;;;;;;;;;;4994621;28;20408;-47
2024/03/31 03:30:32;;;;;;;229.18;65.65;;;;;;;;;;4994653;28;20260;-47
2024/03/31 03:32:58;;;;;;;227.52;63.65;;;;;;;;;;4994583;28;20180;-46
2024/03/31 03:35:24;;;;;;;228.50;65.83;;;;;;;;;;4994306;28;20211;-47
2024/03/31 03:37:50;;;;;;;227.97;65.60;;;;;;;;;;4994395;28;20499;-46
2024/03/31 03:40:16;;;;;;;228.70;64.03;;;;;;;;;;4994237;28;20459;-47
2024/03/31 03:42:42;;;;;;;228.07;64.57;;;;;;;;;;4986262;28;20427;-46
2024/03/31 03:45:08;;;;;;;233.60;68.93;;;;;;;;;;4975294;28;20433;-46
2024/03/31 03:47:34;;;;;;;231.15;69.03;;;;;;;;;;4975652;28;20413;-46
2024/03/31 03:50:03;;;;;;;233.27;70.70;;;;;;;;;;4975996;28;20185;-46
2024/03/31 03:52:29;;;;;;;229.15;66.22;;;;;;;;;;4990442;28;20416;-45
2024/03/31 03:54:54;;;;;;;228.18;63.53;;;;;;;;;;4994120;28;20258;-45
2024/03/31 03:57:20;;;;;;;227.33;64.27;;;;;;;;;;4994083;28;20251;-47
2024/03/31 03:59:46;;;;;;;229.00;65.90;;;;;;;;;;4993830;28;20462;-47
2024/03/31 04:02:12;;;;;;;230.77;67.87;;;;;;;;;;4994025;28;20408;-46
2024/03/31 04:04:38;;;;;;;228.20;64.87;;;;;;;;;;4993841;28;20516;-46
2024/03/31 04:07:05;;;;;;;227.70;64.10;;;;;;;;;;4993527;28;20458;-46
2024/03/31 04:09:31;;;;;;;229.65;66.68;;;;;;;;;;4993937;28;20776;-45
2024/03/31 04:11:57;;;;;;;229.20;64.57;;;;;;;;;;4993974;28;20256;-45
2024/03/31 04:14:23;;;;;;;229.53;65.63;;;;;;;;;;4993736;28;20432;-46
2024/03/31 04:16:49;;;;;;;227.77;62.88;;;;;;;;;;4993484;28;20940;-46
2024/03/31 04:19:15;;;;;;;229.10;65.40;;;;;;;;;;4993727;28;20199;-45
2024/03/31 04:21:41;;;;;;;227.27;62.30;;;;;;;;;;4993812;28;20597;-47
2024/03/31 04:24:07;;;;;;;230.87;67.93;;;;;;;;;;4993343;28;20452;-46
2024/03/31 04:26:33;;;;;;;229.40;66.20;;;;;;;;;;4993062;28;20893;-47
2024/03/31 04:28:59;;;;;;;229.67;66.87;;;;;;;;;;4993408;28;20192;-46
2024/03/31 04:31:25;;;;;;;229.00;66.50;;;;;;;;;;4993725;28;20823;-47
2024/03/31 04:33:51;;;;;;;230.50;67.17;;;;;;;;;;4993533;28;20805;-45
2024/03/31 04:36:18;;;;;;;226.03;63.00;;;;;;;;;;4993243;28;20495;-46
2024/03/31 04:38:43;;;;;;;230.88;66.03;;;;;;;;;;4993390;28;20436;-46
2024/03/31 04:41:09;;;;;;;230.47;64.53;;;;;;;;;;4993476;28;20593;-45
2024/03/31 04:43:35;;;;;;;229.27;63.87;;;;;;;;;;4993080;28;20808;-46
2024/03/31 04:46:03;;;;;;;226.77;61.00;;;;;;;;;;4992951;28;20801;-47
2024/03/31 04:48:29;;;;;;;231.95;68.43;;;;;;;;;;4993053;28;20177;-46
2024/03/31 04:50:55;;;;;;;232.77;69.57;;;;;;;;;;4990661;28;20576;-46
2024/03/31 04:53:21;;;;;;;228.70;63.80;;;;;;;;;;4991908;28;20490;-47
2024/03/31 04:55:47;;;;;;;229.52;65.90;;;;;;;;;;4992579;28;20458;-47
2024/03/31 04:58:13;;;;;;;225.90;61.97;;;;;;;;;;4992873;28;20671;-48
2024/03/31 05:00:39;;;;;;;230.63;65.50;;;;;;;;;;4993110;28;20204;-46
2024/03/31 05:03:05;;;;;;;234.18;69.80;;;;;;;;;;4993015;28;20416;-45
2024/03/31 05:05:35;;;;;;;229.83;65.53;;;;;;;;;;4992534;28;20374;-46
2024/03/31 05:08:01;;;;;;;229.10;64.38;;;;;;;;;;4992682;28;20427;-46
2024/03/31 05:10:27;;;;;;;230.47;66.93;;;;;;;;;;4992706;28;20177;-46
2024/03/31 05:12:53;;;;;;;230.40;65.30;;;;;;;;;;4992217;28;20420;-46
2024/03/31 05:15:19;;;;;;;232.37;67.87;;;;;;;;;;4992256;28;20618;-48
2024/03/31 05:17:45;;;;;;;230.97;66.83;;;;;;;;;;4992575;28;20405;-47
2024/03/31 05:20:11;;;;;;;231.67;65.67;;;;;;;;;;4992651;28;20418;-46
2024/03/31 05:22:37;;;;;;;232.63;69.83;;;;;;;;;;4992492;28;20501;-46
2024/03/31 05:25:03;;;;;;;231.13;65.60;;;;;;;;;;4991974;28;20486;-46
2024/03/31 05:27:29;;;;;;;229.90;64.53;;;;;;;;;;4992117;28;20181;-46
2024/03/31 05:29:55;;;;;;;229.83;63.87;;;;;;;;;;4992262;28;20696;-46
2024/03/31 05:32:21;;;;;;;227.60;63.20;;;;;;;;;;4992193;28;20958;-46
2024/03/31 05:34:47;;;;;;;229.50;63.20;;;;;;;;;;4991939;28;20432;-48
2024/03/31 05:37:13;;;;;;;228.83;63.73;;;;;;;;;;4992032;28;20420;-46
2024/03/31 05:39:39;;;;;;;232.63;66.43;;;;;;;;;;4992057;28;20440;-46
2024/03/31 05:42:05;;;;;;;230.32;64.03;;;;;;;;;;4991985;28;20416;-46
2024/03/31 05:44:31;;;;;;;228.27;61.90;;;;;;;;;;4992126;28;20220;-46
2024/03/31 05:46:56;;;;;;;227.87;63.17;;;;;;;;;;4991773;28;20412;-46
2024/03/31 05:49:22;;;;;;;229.57;63.93;;;;;;;;;;4990771;28;20412;-47
2024/03/31 05:51:48;;;;;;;228.07;62.87;;;;;;;;;;4990574;28;20412;-46
2024/03/31 05:54:15;;;;;;;228.63;60.80;;;;;;;;;;4991748;28;20519;-46
2024/03/31 05:56:41;;;;;;;231.80;65.82;;;;;;;;;;4991261;28;20483;-47
2024/03/31 05:59:07;;;;;;;229.63;65.03;;;;;;;;;;4991815;28;20180;-46
2024/03/31 06:01:33;;;;;;;229.97;63.27;;;;;;;;;;4991674;28;20412;-48
2024/03/31 06:03:59;;;;;;;228.37;61.00;;;;;;;;;;4991393;28;20432;-46
2024/03/31 06:06:25;;;;;;;230.37;64.67;;;;;;;;;;4991761;28;20412;-47
2024/03/31 06:08:50;;;;;;;231.23;65.00;;;;;;;;;;4991425;28;20454;-47
2024/03/31 06:11:16;;;;;;;232.27;67.90;;;;;;;;;;4991531;28;20429;-46
2024/03/31 06:13:44;;;;;;;230.83;65.17;;;;;;;;;;4991487;28;20436;-46
2024/03/31 06:16:10;;;;;;;231.82;65.55;;;;;;;;;;4991298;28;20835;-46
2024/03/31 06:18:36;;;;;;;233.70;67.18;;;;;;;;;;4991370;28;20178;-46
2024/03/31 06:21:06;;;;;;;229.57;62.47;;;;;;;;;;4991643;28;20177;-47
2024/03/31 06:23:35;;;;;;;231.52;67.25;;;;;;;;;;4991180;28;21039;-47
2024/03/31 06:26:00;;;;;;;228.85;62.78;;;;;;;;;;4991404;28;20254;-47
2024/03/31 06:28:26;;;;;;;230.73;65.77;;;;;;;;;;4991592;28;20227;-47
2024/03/31 06:30:52;;;;;;;231.33;65.00;;;;;;;;;;4991436;28;21496;-46
2024/03/31 06:33:18;;;;;;;230.27;65.23;;;;;;;;;;4991379;28;20495;-47
2024/03/31 06:35:45;;;;;;;229.93;61.97;;;;;;;;;;4991037;28;20459;-45
2024/03/31 06:38:11;;;;;;;233.52;68.07;;;;;;;;;;4991157;28;20881;-46
2024/03/31 06:40:37;;;;;;;233.77;67.20;;;;;;;;;;4991262;28;20261;-47
2024/03/31 06:43:04;;;;;;;234.00;66.40;;;;;;;;;;4991264;28;20419;-47
2024/03/31 06:45:30;;;;;;;233.20;65.47;;;;;;;;;;4991045;28;20428;-46
2024/03/31 06:47:56;;;;;;;231.98;64.22;;;;;;;;;;4991357;28;20178;-47
2024/03/31 06:50:22;;;;;;;233.68;65.07;;;;;;;;;;4983468;28;20178;-46
2024/03/31 06:52:48;;;;;;;235.43;67.15;;;;;;;;;;4991048;28;20708;-46
2024/03/31 06:55:14;;;;;;;237.23;68.37;;;;;;;;;;4990974;28;20220;-46
2024/03/31 06:57:40;;;;;;;234.97;66.77;;;;;;;;;;4991247;28;20438;-47
2024/03/31 07:00:07;;;;;;;235.90;70.20;;;;;;;;;;4985466;28;20418;-46
2024/03/31 07:02:33;;;;;;;233.82;64.68;;;;;;;;;;4987762;28;20690;-48
2024/03/31 07:04:59;;;;;;;235.77;69.30;;;;;;;;;;4990911;28;20698;-47
2024/03/31 07:07:25;;;;;;;236.95;68.82;;;;;;;;;;4990841;28;20419;-46
2024/03/31 07:09:51;;;;;;;236.43;68.40;;;;;;;;;;4991081;28;20195;-48
2024/03/31 07:12:17;;;;;;;235.40;68.57;;;;;;;;;;4991374;28;20418;-48
2024/03/31 07:14:43;;;;;;;234.67;66.87;;;;;;;;;;4991096;28;20436;-46
2024/03/31 07:17:09;;;;;;;239.50;73.40;;;;;;;;;;4993009;28;20482;-47
2024/03/31 07:19:36;;;;;;;238.37;71.17;;;;;;;;;;4994631;28;20410;-46
2024/03/31 07:22:02;;;;;;;236.68;68.57;;;;;;;;;;4994508;28;20992;-47
2024/03/31 07:24:28;;;;;;;241.83;74.57;;;;;;;;;;4994589;28;20239;-46
2024/03/31 07:26:54;;;;;;;239.23;71.17;;;;;;;;;;4994238;28;20905;-47
2024/03/31 07:29:20;;;;;;;238.87;72.93;;;;;;;;;;4994669;28;20433;-47
2024/03/31 07:31:46;;;;;;;237.90;68.90;;;;;;;;;;4994447;28;20430;-46
2024/03/31 07:34:12;;;;;;;239.37;73.47;;;;;;;;;;4994652;28;20479;-47
2024/03/31 07:36:38;;;;;;;241.87;75.33;;;;;;;;;;4989381;28;20529;-47
2024/03/31 07:39:03;;;;;;;236.47;68.60;;;;;;;;;;4994357;28;20472;-47
2024/03/31 07:41:31;;;;;;;236.47;66.63;;;;;;;;;;4994284;28;20418;-46
2024/03/31 07:43:57;;;;;;;238.50;71.73;;;;;;;;;;4994116;28;20431;-46
2024/03/31 07:46:22;;;;;;;239.97;70.97;;;;;;;;;;4994461;28;20418;-47
2024/03/31 07:48:50;;;;;;;243.57;75.87;;;;;;;;;;4994068;28;20474;-47
2024/03/31 07:51:16;;;;;;;241.10;71.43;;;;;;;;;;4991486;28;20423;-47
2024/03/31 07:53:42;;;;;;;247.17;80.93;;;;;;;;;;4994034;28;20881;-48
2024/03/31 07:56:08;;;;;;;251.07;86.37;;;;;;;;;;4994104;28;20550;-47
2024/03/31 07:58:34;;;;;;;249.27;80.53;;;;;;;;;;4993989;28;20772;-47
2024/03/31 08:01:01;;;;;;;251.83;88.43;;;;;;;;;;4993934;28;20789;-47
2024/03/31 08:03:28;;;;;;;256.10;93.27;;;;;;;;;;4993779;28;20442;-47
2024/03/31 08:05:54;;;;;;;260.03;101.20;;;;;;;;;;4985588;28;20408;-47
2024/03/31 08:08:20;;;;;;;254.20;90.63;;;;;;;;;;4991621;28;20419;-48
2024/03/31 08:10:46;;;;;;;253.80;93.37;;;;;;;;;;4993695;28;20426;-46
2024/03/31 08:13:14;;;;;;;249.63;88.60;;;;;;;;;;4988600;28;20443;-47
2024/03/31 08:15:43;;;;;;;254.17;90.97;;;;;;;;;;4993437;28;20462;-47
2024/03/31 08:18:10;;;;;;;255.93;96.60;;;;;;;;;;4992713;28;20844;-46
2024/03/31 08:20:36;;;;;;;253.23;94.87;;;;;;;;;;4993752;28;20429;-47
2024/03/31 08:23:02;;;;;;;254.37;94.23;;;;;;;;;;4993428;28;20424;-47
2024/03/31 08:25:30;;;;;;;262.13;103.40;;;;;;;;;;4984754;28;20426;-49
2024/03/31 08:27:56;;;;;;;257.33;99.93;;;;;;;;;;4992409;28;20416;-48
2024/03/31 08:30:22;;;;;;;255.57;98.13;;;;;;;;;;4994341;28;20462;-48
2024/03/31 08:32:50;;;;;;;256.37;99.30;;;;;;;;;;4993148;28;20426;-48
2024/03/31 08:35:16;;;;;;;257.23;101.33;;;;;;;;;;4993131;28;20459;-48
2024/03/31 08:37:42;;;;;;;256.27;100.73;;;;;;;;;;4993119;28;20474;-48
2024/03/31 08:40:08;;;;;;;254.17;98.37;;;;;;;;;;4993433;28;20499;-49
2024/03/31 08:42:44;;;;;;;256.43;104.50;;;;;;;;;;4993296;28;20412;-49
2024/03/31 08:45:13;;;;;;;258.33;103.67;;;;;;;;;;4982397;28;20433;-49
2024/03/31 08:47:42;;;;;;;252.80;96.43;;;;;;;;;;4985428;28;20423;-48
2024/03/31 08:50:08;;;;;;;255.60;101.47;;;;;;;;;;4986735;28;20420;-48
2024/03/31 08:52:34;;;;;;;255.70;101.07;;;;;;;;;;4989408;28;20416;-48
2024/03/31 08:55:02;;;;;;;253.60;98.50;;;;;;;;;;4975674;28;20471;-49
2024/03/31 08:57:28;;;;;;;254.17;98.70;;;;;;;;;;4992824;28;20419;-49
2024/03/31 08:59:54;;;;;;;253.80;98.97;;;;;;;;;;4992718;28;20845;-49
2024/03/31 09:02:26;;;;;;;255.60;101.37;;;;;;;;;;4989812;28;20449;-48
2024/03/31 09:04:52;;;;;;;257.87;105.63;;;;;;;;;;4987615;28;20436;-48
2024/03/31 09:07:20;;;;;;;256.47;106.47;;;;;;;;;;4992457;28;20440;-49
2024/03/31 09:09:46;;;;;;;260.23;111.40;;;;;;;;;;4990554;28;20420;-48
2024/03/31 09:12:12;;;;;;;261.37;116.13;;;;;;;;;;4988463;28;20439;-48
2024/03/31 09:14:38;;;;;;;262.83;121.27;;;;;;;;;;4989418;28;21015;-49
2024/03/31 09:17:06;;;;;;;260.23;113.53;;;;;;;;;;4992440;28;20434;-49
2024/03/31 09:19:32;;;;;;;261.87;118.13;;;;;;;;;;4990920;28;20439;-49
2024/03/31 09:22:00;;;;;;;262.03;117.07;;;;;;;;;;4989260;28;20424;-49
2024/03/31 09:24:28;;;;;;;258.63;115.53;;;;;;;;;;4979631;28;20460;-48
2024/03/31 09:26:55;;;;;;;260.10;115.67;;;;;;;;;;4990475;28;20491;-48
2024/03/31 09:29:21;;;;;;;261.57;118.33;;;;;;;;;;4989727;28;20471;-48
2024/03/31 09:31:47;;;;;;;260.73;118.90;;;;;;;;;;4990558;28;20847;-49
2024/03/31 09:34:13;;;;;;;260.40;120.27;;;;;;;;;;4986905;28;20440;-48
2024/03/31 09:36:40;;;;;;;262.80;120.57;;;;;;;;;;4977600;28;20862;-49
2024/03/31 09:39:06;;;;;;;270.87;133.33;;;;;;;;;;4973451;28;20416;-48
2024/03/31 09:41:32;;;;;;;262.50;123.57;;;;;;;;;;4972589;28;20409;-48
2024/03/31 09:44:00;;;;;;;260.00;118.47;;;;;;;;;;4974990;28;20463;-49
2024/03/31 09:46:26;;;;;;;263.57;126.07;;;;;;;;;;4981284;28;20437;-48
2024/03/31 09:48:56;;;;;;;261.37;124.20;;;;;;;;;;4990956;28;20419;-48
2024/03/31 09:51:29;;;;;;;262.57;124.40;;;;;;;;;;4972202;28;20870;-48
2024/03/31 09:53:58;;;;;;;262.27;125.30;;;;;;;;;;4984759;28;20540;-50
2024/03/31 09:56:27;;;;;;;263.60;128.60;;;;;;;;;;4987392;28;20470;-49
2024/03/31 09:58:55;;;;;;;263.53;128.03;;;;;;;;;;4991625;28;20523;-49
2024/03/31 10:01:21;;;;;;;261.70;124.77;;;;;;;;;;4985233;28;20407;-49
2024/03/31 10:03:49;;;;;;;268.67;132.37;;;;;;;;;;4983722;28;20435;-49
2024/03/31 10:06:16;;;;;;;263.27;129.27;;;;;;;;;;4981309;28;20416;-49
2024/03/31 10:08:43;;;;;;;261.17;123.43;;;;;;;;;;4991558;28;20415;-49
2024/03/31 10:11:09;;;;;;;260.43;125.70;;;;;;;;;;4985908;28;20936;-49
2024/03/31 10:13:35;;;;;;;265.40;132.83;;;;;;;;;;4984129;28;20531;-49
2024/03/31 10:16:02;;;;;;;263.60;132.63;;;;;;;;;;4991254;28;20542;-49
2024/03/31 10:18:30;;;;;;;262.50;131.03;;;;;;;;;;4991450;28;20772;-49
2024/03/31 10:20:57;;;;;;;262.77;135.73;;;;;;;;;;4983007;28;20516;-48
2024/03/31 10:23:25;;;;;;;263.93;134.83;;;;;;;;;;4986589;28;20598;-48
2024/03/31 10:25:52;;;;;;;266.27;138.50;;;;;;;;;;4988465;28;20830;-49
2024/03/31 10:28:18;;;;;;;263.33;135.67;;;;;;;;;;4979720;28;20815;-50
2024/03/31 10:30:44;;;;;;;267.83;141.77;;;;;;;;;;4984462;28;20893;-49
2024/03/31 10:33:11;;;;;;;263.40;138.10;;;;;;;;;;4984823;28;20859;-50
2024/03/31 10:35:38;;;;;;;264.10;136.27;;;;;;;;;;4989531;28;20818;-48
2024/03/31 10:38:04;;;;;;;265.43;133.67;;;;;;;;;;4970200;28;20419;-49
2024/03/31 10:40:32;;;;;;;268.03;143.53;;;;;;;;;;4987803;28;20412;-48
2024/03/31 10:42:58;;;;;;;266.37;137.23;;;;;;;;;;4984747;28;20412;-49
2024/03/31 10:45:27;;;;;;;265.40;136.87;;;;;;;;;;4989020;28;20479;-48
2024/03/31 10:47:53;;;;;;;261.37;128.43;;;;;;;;;;4991144;28;21455;-48
2024/03/31 10:50:25;;;;;;;262.57;130.97;;;;;;;;;;4982951;28;20416;-48
2024/03/31 10:52:51;;;;;;;261.67;129.37;;;;;;;;;;4989540;28;20935;-47
2024/03/31 10:55:18;;;;;;;260.50;126.60;;;;;;;;;;4991515;28;20967;-49
2024/03/31 10:57:44;;;;;;;264.00;132.60;;;;;;;;;;4994911;28;20470;-48
2024/03/31 11:00:17;;;;;;;261.30;126.90;;;;;;;;;;4989722;28;20846;-48
2024/03/31 11:02:43;;;;;;;263.10;129.77;;;;;;;;;;4989312;28;20465;-49
2024/03/31 11:05:12;;;;;;;262.87;131.37;;;;;;;;;;4985196;28;20439;-48
2024/03/31 11:07:40;;;;;;;261.17;130.93;;;;;;;;;;4994755;28;20420;-49
2024/03/31 11:10:07;;;;;;;263.77;133.93;;;;;;;;;;4993823;28;20412;-49
2024/03/31 11:12:35;;;;;;;260.47;129.97;;;;;;;;;;4991411;28;20474;-48
2024/03/31 11:15:01;;;;;;;265.73;137.27;;;;;;;;;;4988931;28;20436;-49
2024/03/31 11:17:27;;;;;;;268.63;140.27;;;;;;;;;;4990907;28;20809;-49
2024/03/31 11:19:53;;;;;;;266.13;140.13;;;;;;;;;;4985152;28;20416;-49
2024/03/31 11:22:22;;;;;;;261.13;133.67;;;;;;;;;;4994620;28;20876;-48
2024/03/31 11:24:50;;;;;;;264.30;138.80;;;;;;;;;;4987147;28;20463;-49
2024/03/31 11:27:17;;;;;;;262.50;139.00;;;;;;;;;;4991247;28;20503;-48
2024/03/31 11:29:44;;;;;;;263.50;142.40;;;;;;;;;;4983837;28;20416;-48
2024/03/31 11:32:12;;;;;;;265.03;148.83;;;;;;;;;;4975305;28;20495;-49
2024/03/31 11:34:41;;;;;;;264.83;147.77;;;;;;;;;;4982517;28;20427;-48
2024/03/31 11:37:07;;;;;;;267.27;150.20;;;;;;;;;;4974787;28;20559;-48
2024/03/31 11:39:35;;;;;;;266.43;143.97;;;;;;;;;;4973900;28;20575;-46
2024/03/31 11:42:06;;;;;;;264.03;136.93;;;;;;;;;;4974747;28;20947;-45
2024/03/31 11:44:32;;;;;;;264.80;131.73;;;;;;;;;;4974654;28;20460;-45
2024/03/31 11:47:00;;;;;;;262.77;128.17;;;;;;;;;;4978450;28;20502;-46
2024/03/31 11:49:28;;;;;;;260.33;125.27;;;;;;;;;;4985331;28;20419;-47
2024/03/31 11:51:55;;;;;;;262.43;124.40;;;;;;;;;;4979255;28;20507;-45
2024/03/31 11:54:21;;;;;;;260.27;118.07;;;;;;;;;;4971960;28;20429;-45
2024/03/31 11:56:47;;;;;;;263.80;125.73;;;;;;;;;;4984234;28;20460;-46
2024/03/31 11:59:17;;;;;;;263.43;124.53;;;;;;;;;;4988003;28;20889;-46
2024/03/31 12:01:43;;;;;;;258.67;116.70;;;;;;;;;;4992528;28;20408;-45
2024/03/31 12:04:18;;;;;;;261.80;119.30;;;;;;;;;;4991754;28;20482;-47
2024/03/31 12:06:45;;;;;;;262.77;121.00;;;;;;;;;;4991805;28;20422;-45
2024/03/31 12:09:12;;;;;;;255.80;110.67;;;;;;;;;;4983550;28;20449;-48
2024/03/31 12:11:38;;;;;;;264.60;120.17;;;;;;;;;;4975131;28;20467;-48
2024/03/31 12:14:04;;;;;;;263.47;117.73;;;;;;;;;;4986167;28;20811;-49
2024/03/31 12:16:31;;;;;;;260.57;110.50;;;;;;;;;;4982778;28;20476;-47
2024/03/31 12:18:58;;;;;;;261.00;110.27;;;;;;;;;;4983268;28;20465;-49
2024/03/31 12:21:25;;;;;;;261.47;110.47;;;;;;;;;;4992221;28;20416;-47
2024/03/31 12:23:52;;;;;;;257.60;107.73;;;;;;;;;;4978104;28;20451;-46
2024/03/31 12:26:18;;;;;;;260.40;107.30;;;;;;;;;;4993211;28;20507;-47
2024/03/31 12:28:45;;;;;;;259.47;110.17;;;;;;;;;;4992318;28;20827;-47
2024/03/31 12:31:12;;;;;;;264.27;120.10;;;;;;;;;;4993487;28;20777;-48
2024/03/31 12:33:38;;;;;;;261.60;113.47;;;;;;;;;;4988683;28;20440;-47
2024/03/31 12:36:04;;;;;;;259.53;114.03;;;;;;;;;;4993078;28;20467;-48
2024/03/31 12:38:31;;;;;;;261.67;117.40;;;;;;;;;;4990597;28;20803;-48
2024/03/31 12:40:57;;;;;;;256.30;114.37;;;;;;;;;;4993129;28;20420;-48
2024/03/31 12:43:24;;;;;;;259.20;117.30;;;;;;;;;;4983244;28;20523;-49
2024/03/31 12:45:51;;;;;;;260.33;116.87;;;;;;;;;;4992991;28;20424;-48
2024/03/31 12:48:17;;;;;;;259.17;113.87;;;;;;;;;;4993441;28;20411;-47
2024/03/31 12:50:50;;;;;;;261.53;118.70;;;;;;;;;;4990475;28;20418;-48
2024/03/31 12:53:16;;;;;;;259.80;113.97;;;;;;;;;;4984698;28;20464;-47
2024/03/31 12:55:42;;;;;;;260.00;116.40;;;;;;;;;;4992678;28;20467;-48
2024/03/31 12:58:09;;;;;;;261.20;114.23;;;;;;;;;;4993143;28;20844;-48
2024/03/31 13:00:41;;;;;;;259.00;116.13;;;;;;;;;;4978431;28;20512;-49
2024/03/31 13:03:11;;;;;;;260.23;113.87;;;;;;;;;;4966247;28;20913;-48
2024/03/31 13:05:37;;;;;;;263.47;121.00;;;;;;;;;;4981352;28;20419;-49
2024/03/31 13:08:07;;;;;;;261.83;125.23;;;;;;;;;;4985733;28;20424;-48
2024/03/31 13:10:34;;;;;;;264.03;128.57;;;;;;;;;;4984636;28;20417;-48
2024/03/31 13:13:01;;;;;;;261.50;125.27;;;;;;;;;;4992381;28;20419;-49
2024/03/31 13:15:27;;;;;;;262.00;127.40;;;;;;;;;;4981449;28;20539;-50
2024/03/31 13:17:53;;;;;;;262.57;129.23;;;;;;;;;;4991798;28;20502;-48
2024/03/31 13:20:19;;;;;;;264.70;129.43;;;;;;;;;;4988254;28;20409;-48
2024/03/31 13:22:45;;;;;;;261.57;124.43;;;;;;;;;;4974169;28;20417;-49
2024/03/31 13:25:11;;;;;;;266.30;129.13;;;;;;;;;;4976154;28;20457;-49
2024/03/31 13:27:37;;;;;;;270.17;129.63;;;;;;;;;;4973641;28;20428;-47
2024/03/31 13:30:03;;;;;;;262.37;122.53;;;;;;;;;;4977108;28;20494;-49
2024/03/31 13:32:29;;;;;;;261.40;121.47;;;;;;;;;;4992577;28;20424;-46
2024/03/31 13:34:55;;;;;;;260.63;119.53;;;;;;;;;;4992039;28;20523;-47
2024/03/31 13:37:22;;;;;;;257.20;110.57;;;;;;;;;;4986825;28;20416;-48
2024/03/31 13:39:48;;;;;;;258.03;111.67;;;;;;;;;;4986826;28;20412;-48
2024/03/31 13:42:14;;;;;;;256.97;105.13;;;;;;;;;;4985776;28;20499;-47
2024/03/31 13:44:40;;;;;;;257.93;105.40;;;;;;;;;;4979583;28;20439;-47
2024/03/31 13:47:06;;;;;;;253.97;101.77;;;;;;;;;;4977405;28;20914;-48
2024/03/31 13:49:32;;;;;;;256.60;100.43;;;;;;;;;;4980786;28;20421;-49
2024/03/31 13:51:58;;;;;;;257.73;103.57;;;;;;;;;;4985325;28;20845;-47
2024/03/31 13:54:25;;;;;;;258.87;102.37;;;;;;;;;;4983705;28;20950;-47